createdAt,value
2019-02-22T00:02:13.458Z,42.83
2019-02-22T00:07:15.098Z,40.87
2019-02-22T00:12:16.769Z,42.93
2019-02-22T00:17:18.320Z,44.60
2019-02-22T00:22:19.931Z,41.67
2019-02-22T00:27:22.109Z,42.00
2019-02-22T00:32:23.944Z,42.17
2019-02-22T00:37:25.645Z,43.00
2019-02-22T00:42:27.888Z,41.93
2019-02-22T00:47:29.421Z,39.77
2019-02-22T00:52:31.999Z,38.63
2019-02-22T00:57:33.625Z,39.10
2019-02-22T01:02:35.582Z,36.97
2019-02-22T01:07:37.519Z,38.47
2019-02-22T01:12:39.119Z,35.90
2019-02-22T01:17:41.123Z,35.80
2019-02-22T01:22:42.681Z,32.53
2019-02-22T01:27:44.231Z,33.87
2019-02-22T01:32:45.785Z,32.73
2019-02-22T01:37:47.692Z,34.80
2019-02-22T01:42:49.309Z,34.70
2019-02-22T01:47:50.899Z,34.53
2019-02-22T01:52:52.459Z,34.30
2019-02-22T01:57:54.542Z,31.10
2019-02-22T02:02:56.088Z,33.40
2019-02-22T02:07:57.718Z,35.00
2019-02-22T02:12:59.341Z,35.93
2019-02-22T02:18:00.827Z,32.70
2019-02-22T02:23:02.403Z,35.87
2019-02-22T02:28:04.009Z,33.07
2019-02-22T02:33:05.643Z,32.17
2019-02-22T02:38:07.295Z,33.13
2019-02-22T02:43:09.318Z,32.57
2019-02-22T02:48:10.882Z,34.23
2019-02-22T02:53:12.512Z,33.67
2019-02-22T02:58:14.040Z,33.00
2019-02-22T03:03:16.092Z,33.77
2019-02-22T03:08:17.631Z,33.37
2019-02-22T03:13:19.285Z,32.23
2019-02-22T03:18:20.878Z,31.70
2019-02-22T03:23:22.482Z,32.27
2019-02-22T03:28:24.082Z,33.10
2019-02-22T03:33:25.819Z,33.37
2019-02-22T03:38:27.335Z,32.60
2019-02-22T03:43:28.974Z,34.03
2019-02-22T03:48:30.528Z,31.03
2019-02-22T03:53:32.143Z,31.23
2019-02-22T03:58:33.743Z,31.07
2019-02-22T04:03:35.371Z,32.97
2019-02-22T04:08:36.865Z,31.97
2019-02-22T04:13:38.913Z,34.90
2019-02-22T04:18:40.450Z,32.70
2019-02-22T04:23:42.423Z,33.87
2019-02-22T04:28:44.010Z,34.33
2019-02-22T04:33:45.578Z,34.67
2019-02-22T04:38:47.189Z,34.37
2019-02-22T04:43:48.793Z,34.37
2019-02-22T04:48:50.727Z,33.80
2019-02-22T04:53:52.650Z,32.43
2019-02-22T04:58:54.192Z,32.83
2019-02-22T05:03:56.266Z,31.53
2019-02-22T05:08:57.791Z,31.43
2019-02-22T05:13:59.354Z,31.90
2019-02-22T05:19:00.935Z,31.70
2019-02-22T05:24:02.494Z,30.87
2019-02-22T05:29:04.051Z,30.10
2019-02-22T05:34:05.684Z,31.03
2019-02-22T05:39:18.557Z,30.27
2019-02-22T05:44:10.958Z,30.27
2019-02-22T05:49:12.716Z,30.60
2019-02-22T05:54:14.500Z,32.07
2019-02-22T05:59:16.063Z,28.27
2019-02-22T06:04:17.665Z,31.23
2019-02-22T06:09:19.779Z,29.17
2019-02-22T06:14:21.360Z,30.67
2019-02-22T06:19:22.940Z,30.20
2019-02-22T06:24:24.750Z,29.03
2019-02-22T06:29:26.380Z,28.97
2019-02-22T06:34:27.960Z,29.13
2019-02-22T06:39:29.686Z,29.43
2019-02-22T06:44:31.235Z,30.03
2019-02-22T06:49:32.894Z,29.47
2019-02-22T06:54:35.230Z,29.80
2019-02-22T06:59:37.087Z,35.43
2019-02-22T07:04:38.690Z,29.83
2019-02-22T07:09:40.382Z,28.10
2019-02-22T07:14:41.937Z,27.67
2019-02-22T07:19:43.582Z,28.30
2019-02-22T07:24:45.099Z,30.00
2019-02-22T07:29:46.707Z,29.17
2019-02-22T07:34:48.671Z,33.33
2019-02-22T07:39:50.223Z,29.97
2019-02-22T07:44:51.816Z,30.47
2019-02-22T07:49:53.474Z,29.20
2019-02-22T07:54:55.024Z,29.30
2019-02-22T07:59:56.579Z,29.00
2019-02-22T08:04:58.115Z,28.97
2019-02-22T08:09:59.680Z,29.70
2019-02-22T08:15:03.111Z,28.93
2019-02-22T08:20:04.883Z,28.23
2019-02-22T08:25:06.976Z,28.70
2019-02-22T08:30:08.858Z,27.80
2019-02-22T08:35:10.447Z,28.10
2019-02-22T08:40:12.395Z,26.30
2019-02-22T08:45:13.983Z,28.37
2019-02-22T08:50:15.524Z,28.40
2019-02-22T08:55:17.106Z,27.13
2019-02-22T09:00:18.622Z,27.73
2019-02-22T09:05:20.257Z,29.47
2019-02-22T09:10:22.265Z,28.57
2019-02-22T09:15:23.838Z,27.60
2019-02-22T09:20:25.449Z,30.00
2019-02-22T09:25:26.937Z,29.77
2019-02-22T09:30:28.490Z,30.73
2019-02-22T09:35:30.051Z,30.97
2019-02-22T09:40:32.133Z,30.43
2019-02-22T09:45:33.705Z,31.63
2019-02-22T09:50:35.263Z,34.60
2019-02-22T09:55:36.854Z,34.23
2019-02-22T10:00:38.399Z,32.47
2019-02-22T10:05:39.969Z,30.70
2019-02-22T10:10:41.583Z,33.53
2019-02-22T10:15:43.406Z,32.90
2019-02-22T10:20:45.049Z,31.67
2019-02-22T10:25:46.587Z,32.57
2019-02-22T10:30:48.145Z,33.13
2019-02-22T10:35:49.703Z,34.90
2019-02-22T10:40:51.301Z,32.77
2019-02-22T10:45:52.854Z,33.13
2019-02-22T10:50:54.413Z,32.73
2019-02-22T10:55:56.307Z,32.03
2019-02-22T11:00:57.930Z,33.93
2019-02-22T11:05:59.491Z,35.80
2019-02-22T11:11:01.204Z,37.40
2019-02-22T11:16:02.745Z,35.30
2019-02-22T11:21:04.276Z,37.07
2019-02-22T11:26:06.303Z,36.33
2019-02-22T11:31:07.839Z,37.07
2019-02-22T11:36:09.681Z,38.23
2019-02-22T11:41:11.250Z,36.10
2019-02-22T11:46:12.861Z,36.10
2019-02-22T11:51:14.455Z,36.65
2019-02-22T11:56:16.009Z,35.53
2019-02-22T12:01:17.838Z,35.73
2019-02-22T12:06:19.362Z,33.37
2019-02-22T12:11:20.934Z,34.48
2019-02-22T12:16:22.926Z,34.92
2019-02-22T12:21:24.498Z,37.58
2019-02-22T12:26:26.048Z,36.77
2019-02-22T12:31:27.625Z,37.75
2019-02-22T12:36:29.535Z,33.18
2019-02-22T12:41:31.146Z,34.08
2019-02-22T12:46:32.676Z,35.65
2019-02-22T12:51:34.265Z,33.48
2019-02-22T13:01:39.449Z,36.40
2019-02-22T13:06:41.048Z,35.48
2019-02-22T13:11:42.657Z,38.67
2019-02-22T13:16:44.204Z,41.07
2019-02-22T13:21:45.843Z,41.77
2019-02-22T13:26:47.457Z,40.63
2019-02-22T13:31:49.030Z,38.37
2019-02-22T13:36:50.658Z,40.83
2019-02-22T13:41:52.207Z,36.73
2019-02-22T13:46:55.774Z,31.13
2019-02-22T13:51:57.327Z,24.40
2019-02-22T13:56:58.869Z,27.67
2019-02-22T14:02:01.132Z,27.50
2019-02-22T14:07:03.174Z,32.33
2019-02-22T14:12:04.738Z,32.20
2019-02-22T14:17:06.285Z,33.53
2019-02-22T14:22:07.809Z,31.83
2019-02-22T14:27:09.931Z,33.63
2019-02-22T14:32:11.556Z,34.07
2019-02-22T14:37:13.104Z,35.23
2019-02-22T14:42:14.676Z,34.50
2019-02-22T14:47:16.229Z,33.00
2019-02-22T14:52:17.838Z,35.20
2019-02-22T14:57:19.424Z,34.17
2019-02-22T15:02:20.999Z,35.43
2019-02-22T15:07:22.644Z,34.40
2019-02-22T15:12:24.852Z,34.27
2019-02-22T15:17:27.398Z,34.23
2019-02-22T15:22:32.227Z,36.30
2019-02-22T15:27:36.259Z,36.00
2019-02-22T15:32:37.371Z,36.87
2019-02-22T15:37:39.013Z,34.83
2019-02-22T15:42:40.814Z,35.67
2019-02-22T15:47:42.427Z,39.60
2019-02-22T15:52:44.545Z,38.87
2019-02-22T15:57:46.273Z,42.33
2019-02-22T16:02:48.381Z,42.03
2019-02-22T16:07:50.345Z,41.30
2019-02-22T16:12:51.901Z,40.30
2019-02-22T16:17:53.640Z,40.23
2019-02-22T16:22:55.266Z,38.37
2019-02-22T16:27:56.804Z,41.70
2019-02-22T16:32:58.413Z,40.33
2019-02-22T16:38:00.206Z,39.17
2019-02-22T16:43:02.129Z,42.10
2019-02-22T16:48:04.265Z,41.97
2019-02-22T16:53:05.832Z,38.27
2019-02-22T16:58:07.783Z,38.40
2019-02-22T17:03:09.469Z,39.27
2019-02-22T17:08:11.032Z,39.57
2019-02-22T17:13:12.592Z,40.70
2019-02-22T17:18:14.595Z,40.27
2019-02-22T17:23:16.170Z,46.57
2019-02-22T17:28:18.078Z,39.97
2019-02-22T17:33:19.665Z,38.20
2019-02-22T17:38:21.266Z,38.30
2019-02-22T17:43:23.707Z,39.23
2019-02-22T17:48:25.259Z,38.40
2019-02-22T17:53:27.014Z,37.50
2019-02-22T17:58:28.761Z,38.37
2019-02-22T18:03:30.430Z,34.43
2019-02-22T18:08:32.415Z,34.03
2019-02-22T18:13:34.728Z,33.20
2019-02-22T18:18:36.771Z,34.63
2019-02-22T18:23:38.410Z,33.33
2019-02-22T18:28:40.043Z,34.13
2019-02-22T18:33:41.978Z,30.70
2019-02-22T18:38:43.644Z,32.17
2019-02-22T18:43:45.560Z,30.57
2019-02-22T18:48:47.221Z,30.07
2019-02-22T18:53:49.357Z,30.03
2019-02-22T18:58:51.361Z,29.20
2019-02-22T19:03:53.011Z,28.90
2019-02-22T19:08:54.713Z,27.77
2019-02-22T19:13:56.304Z,29.70
2019-02-22T19:18:57.892Z,32.90
2019-02-22T19:23:59.487Z,30.20
2019-02-22T19:29:01.204Z,30.83
2019-02-22T19:34:03.162Z,30.03
2019-02-22T19:39:05.165Z,27.40
2019-02-22T19:44:06.816Z,30.03
2019-02-22T19:49:08.500Z,25.40
2019-02-22T19:54:10.065Z,31.00
2019-02-22T19:59:12.723Z,31.73
2019-02-22T20:04:14.660Z,29.23
2019-02-22T20:09:16.502Z,31.07
2019-02-22T20:14:18.464Z,28.50
2019-02-22T20:19:20.618Z,31.57
2019-02-22T20:24:23.445Z,31.33
2019-02-22T20:29:25.340Z,30.40
2019-02-22T20:34:29.035Z,27.67
2019-02-22T20:39:30.760Z,29.90
2019-02-22T20:44:32.405Z,28.57
2019-02-22T20:49:34.097Z,28.50
2019-02-22T20:54:35.806Z,27.40
2019-02-22T20:59:37.488Z,26.80
2019-02-22T21:04:39.114Z,25.67
2019-02-22T21:09:41.112Z,25.17
2019-02-22T21:14:43.055Z,25.83
2019-02-22T21:19:44.645Z,26.17
2019-02-22T21:24:46.630Z,26.63
2019-02-22T21:29:48.197Z,26.27
2019-02-22T21:34:49.775Z,26.03
2019-02-22T21:39:51.429Z,28.03
2019-02-22T21:44:53.049Z,26.00
2019-02-22T21:49:54.823Z,29.40
2019-02-22T21:54:56.439Z,28.77
2019-02-22T21:59:57.987Z,27.33
2019-02-22T22:04:59.566Z,27.33
2019-02-22T22:10:01.584Z,31.20
2019-02-22T22:15:03.270Z,31.17
2019-02-22T22:20:04.839Z,29.43
2019-02-22T22:25:07.256Z,29.53
2019-02-22T22:30:09.620Z,31.80
2019-02-22T22:35:11.317Z,31.83
2019-02-22T22:40:12.889Z,30.73
2019-02-22T22:45:14.587Z,29.17
2019-02-22T22:50:16.123Z,31.47
2019-02-22T22:55:17.829Z,33.30
2019-02-22T23:00:35.672Z,29.77
2019-02-22T23:05:37.358Z,34.93
2019-02-22T23:10:38.882Z,35.70
2019-02-22T23:15:40.442Z,34.80
2019-02-22T23:20:42.330Z,32.97
2019-02-22T23:25:43.875Z,33.53
2019-02-22T23:30:45.477Z,33.60
2019-02-22T23:35:47.023Z,34.70
2019-02-22T23:40:48.591Z,34.60
2019-02-22T23:45:50.156Z,34.47
2019-02-22T23:50:51.709Z,35.63
2019-02-22T23:55:53.615Z,32.83
